Time;durP1;ratioP1;P1;durP2;ratioP2;P2;SDS_P1;SDS_P2;PMS_P1;PMS_P2;Temp;Humidity;BMP_temperature;BMP_pressure;BME280_temperature;BME280_humidity;BME280_pressure;Samples;Min_cycle;Max_cycle;Signal;HPM_P1;HPM_P2
2022/01/10 00:02:07;0.00;0.00;0.62;0.00;0.00;0.62;3.20;2.03;;;19.90;26.80;;;;;;2242189;62;20442;-61
2022/01/10 00:04:51;0.00;0.00;0.62;0.00;0.00;0.62;5.83;2.00;;;19.90;26.80;;;;;;2240709;62;20434;-61
2022/01/10 00:07:36;0.00;0.00;0.62;0.00;0.00;0.62;4.10;2.07;;;19.90;26.80;;;;;;2241770;62;20357;-61
2022/01/10 00:10:20;0.00;0.00;0.62;0.00;0.00;0.62;4.87;2.13;;;19.90;26.80;;;;;;2241752;62;20447;-60
2022/01/10 00:13:05;0.00;0.00;0.62;0.00;0.00;0.62;3.23;2.17;;;19.90;26.80;;;;;;2241215;61;20621;-61
2022/01/10 00:15:51;0.00;0.00;0.62;0.00;0.00;0.62;3.10;1.90;;;19.80;26.70;;;;;;2242088;62;20581;-62
2022/01/10 00:18:35;0.00;0.00;0.62;0.00;0.00;0.62;2.80;1.80;;;19.80;26.60;;;;;;2241202;62;20358;-62
2022/01/10 00:21:20;0.00;0.00;0.62;0.00;0.00;0.62;3.13;2.10;;;19.80;26.70;;;;;;2241314;62;20370;-61
2022/01/10 00:24:05;0.00;0.00;0.62;0.00;0.00;0.62;3.73;2.07;;;19.80;26.70;;;;;;2241999;62;20398;-61
2022/01/10 00:26:50;0.00;0.00;0.62;0.00;0.00;0.62;3.00;2.17;;;19.70;26.60;;;;;;2241253;62;20370;-61
2022/01/10 00:29:34;0.00;0.00;0.62;0.00;0.00;0.62;3.60;1.93;;;19.70;26.70;;;;;;2241667;62;20786;-61
2022/01/10 00:32:23;0.00;0.00;0.62;0.00;0.00;0.62;4.77;2.13;;;19.70;26.70;;;;;;2241826;62;20382;-62
2022/01/10 00:35:09;0.00;0.00;0.62;0.00;0.00;0.62;4.50;2.10;;;19.70;26.60;;;;;;2241612;62;20386;-61
2022/01/10 00:37:54;0.00;0.00;0.62;0.00;0.00;0.62;3.93;2.23;;;19.70;26.70;;;;;;2244321;61;20480;-61
2022/01/10 00:40:40;0.00;0.00;0.62;0.00;0.00;0.62;4.13;2.53;;;19.70;26.70;;;;;;2243496;61;20742;-61
2022/01/10 00:43:31;0.00;0.00;0.62;0.00;0.00;0.62;3.80;2.80;;;19.70;26.70;;;;;;2241117;62;20447;-61
2022/01/10 00:46:17;0.00;0.00;0.62;0.00;0.00;0.62;4.40;2.27;;;19.60;26.70;;;;;;2244367;61;20362;-61
2022/01/10 00:49:04;0.00;0.00;0.62;0.00;0.00;0.62;4.10;1.93;;;19.60;26.70;;;;;;2243390;61;20382;-61
2022/01/10 00:51:48;0.00;0.00;0.62;0.00;0.00;0.62;3.63;2.20;;;19.70;26.70;;;;;;2241687;62;20570;-61
2022/01/10 00:54:33;0.00;0.00;0.62;0.00;0.00;0.62;6.57;2.20;;;19.60;26.70;;;;;;2241524;62;20495;-61
2022/01/10 00:57:17;0.00;0.00;0.62;0.00;0.00;0.62;6.80;2.17;;;19.60;26.70;;;;;;2241533;62;20375;-61
2022/01/10 01:00:05;0.00;0.00;0.62;0.00;0.00;0.62;3.67;1.93;;;19.60;26.70;;;;;;2244243;61;20370;-61
2022/01/10 01:02:50;0.00;0.00;0.62;0.00;0.00;0.62;3.63;2.17;;;19.60;26.70;;;;;;2243337;61;20378;-61
2022/01/10 01:05:40;0.00;0.00;0.62;0.00;0.00;0.62;3.20;2.17;;;19.60;26.70;;;;;;2241203;62;20734;-61
2022/01/10 01:08:29;0.00;0.00;0.62;0.00;0.00;0.62;2.83;1.80;;;19.60;26.70;;;;;;2241704;62;20458;-61
2022/01/10 01:14:08;0.00;0.00;0.62;0.00;0.00;0.62;4.60;1.87;;;19.60;26.70;;;;;;2241584;62;20385;-61
2022/01/10 01:17:11;0.00;0.00;0.62;0.00;0.00;0.62;3.40;1.50;;;19.60;26.70;;;;;;2241494;62;20366;-64
2022/01/10 01:25:45;0.00;0.00;0.62;0.00;0.00;0.62;4.67;2.40;;;19.50;26.60;;;;;;2240812;62;20390;-61
2022/01/10 01:28:30;0.00;0.00;0.62;0.00;0.00;0.62;3.67;2.33;;;19.50;26.70;;;;;;2241160;62;20442;-61
2022/01/10 01:31:14;0.00;0.00;0.62;0.00;0.00;0.62;3.20;1.93;;;19.50;26.70;;;;;;2241872;62;20357;-61
2022/01/10 01:33:59;0.00;0.00;0.62;0.00;0.00;0.62;2.33;1.80;;;19.50;26.70;;;;;;2240969;62;20398;-61
2022/01/10 01:36:49;0.00;0.00;0.62;0.00;0.00;0.62;2.80;1.80;;;19.50;26.70;;;;;;2240979;62;20379;-61
2022/01/10 01:39:35;0.00;0.00;0.62;0.00;0.00;0.62;4.13;1.93;;;19.50;26.70;;;;;;2243415;61;20402;-61
2022/01/10 01:42:35;0.00;0.00;0.62;0.00;0.00;0.62;3.33;1.97;;;19.50;26.70;;;;;;2240981;62;20370;-60
2022/01/10 01:45:37;0.00;0.00;0.62;0.00;0.00;0.62;3.23;2.07;;;19.50;26.70;;;;;;2241452;62;20417;-61
2022/01/10 01:48:22;0.00;0.00;0.62;0.00;0.00;0.62;4.47;2.10;;;19.50;26.70;;;;;;2243149;61;20467;-62
2022/01/10 01:51:06;0.00;0.00;0.62;0.00;0.00;0.62;3.10;1.77;;;19.40;26.70;;;;;;2241358;62;20723;-61
2022/01/10 01:53:52;0.00;0.00;0.62;0.00;0.00;0.62;5.67;2.20;;;19.40;26.70;;;;;;2243517;61;20378;-62
2022/01/10 01:56:39;0.00;0.00;0.62;0.00;0.00;0.62;5.23;1.77;;;19.40;26.70;;;;;;2240997;62;20435;-62
2022/01/10 01:59:25;0.00;0.00;0.62;0.00;0.00;0.62;3.10;2.20;;;19.40;26.70;;;;;;2244040;61;20566;-62
2022/01/10 02:02:09;0.00;0.00;0.62;0.00;0.00;0.62;2.53;1.50;;;19.40;26.70;;;;;;2243200;61;20347;-62
2022/01/10 02:04:54;0.00;0.00;0.62;0.00;0.00;0.62;4.97;1.97;;;19.40;26.70;;;;;;2243341;61;20426;-61
2022/01/10 02:07:39;0.00;0.00;0.62;0.00;0.00;0.62;5.33;2.50;;;19.40;26.70;;;;;;2241345;62;20362;-61
2022/01/10 02:10:24;0.00;0.00;0.62;0.00;0.00;0.62;6.23;2.20;;;19.40;26.70;;;;;;2243256;61;20784;-61
2022/01/10 02:13:09;0.00;0.00;0.62;0.00;0.00;0.62;4.50;2.20;;;19.40;26.70;;;;;;2243529;61;20430;-60
2022/01/10 02:16:01;0.00;0.00;0.62;0.00;0.00;0.62;4.57;1.83;;;19.40;26.70;;;;;;2244006;61;20592;-61
2022/01/10 02:18:50;0.00;0.00;0.62;0.00;0.00;0.62;4.10;2.20;;;19.30;26.60;;;;;;2240847;62;20771;-61
2022/01/10 02:21:36;0.00;0.00;0.62;0.00;0.00;0.62;2.70;1.93;;;19.30;26.60;;;;;;2241808;62;20362;-61
2022/01/10 02:24:23;0.00;0.00;0.62;0.00;0.00;0.62;3.80;2.30;;;19.30;26.60;;;;;;2243098;61;20648;-62
2022/01/10 02:27:08;0.00;0.00;0.62;0.00;0.00;0.62;3.63;2.30;;;19.30;26.60;;;;;;2243319;61;20623;-61
2022/01/10 02:29:53;0.00;0.00;0.62;0.00;0.00;0.62;4.20;2.30;;;19.30;26.60;;;;;;2244769;61;20393;-61
2022/01/10 02:32:38;0.00;0.00;0.62;0.00;0.00;0.62;3.70;2.20;;;19.40;26.70;;;;;;2243679;61;20428;-61
2022/01/10 02:35:27;0.00;0.00;0.62;0.00;0.00;0.62;3.50;1.83;;;19.30;26.60;;;;;;2241729;62;20669;-61
2022/01/10 02:38:13;0.00;0.00;0.62;0.00;0.00;0.62;2.93;1.90;;;19.30;26.60;;;;;;2241932;62;20362;-61
2022/01/10 02:40:59;0.00;0.00;0.62;0.00;0.00;0.62;4.80;1.97;;;19.30;26.60;;;;;;2241880;62;20385;-62
2022/01/10 02:43:44;0.00;0.00;0.62;0.00;0.00;0.62;3.83;1.93;;;19.30;26.60;;;;;;2244594;61;20413;-62
2022/01/10 02:46:32;0.00;0.00;0.62;0.00;0.00;0.62;3.73;2.00;;;19.30;26.60;;;;;;2241479;62;20410;-61
2022/01/10 02:49:25;0.00;0.00;0.62;0.00;0.00;0.62;3.80;1.97;;;19.30;26.60;;;;;;2243848;61;20385;-60
2022/01/10 02:52:09;0.00;0.00;0.62;0.00;0.00;0.62;2.10;1.73;;;19.30;26.60;;;;;;2244512;61;20735;-61
2022/01/10 02:55:00;0.00;0.00;0.62;0.00;0.00;0.62;3.53;2.17;;;19.30;26.60;;;;;;2243745;61;20430;-61
2022/01/10 02:57:45;0.00;0.00;0.62;0.00;0.00;0.62;4.50;1.80;;;19.30;26.60;;;;;;2241495;62;20723;-61
2022/01/10 03:00:30;0.00;0.00;0.62;0.00;0.00;0.62;4.93;2.03;;;19.30;26.70;;;;;;2241375;62;20390;-61
2022/01/10 03:03:15;0.00;0.00;0.62;0.00;0.00;0.62;5.50;2.93;;;19.30;26.60;;;;;;2244206;61;20378;-61
2022/01/10 03:06:00;0.00;0.00;0.62;0.00;0.00;0.62;3.70;2.10;;;19.30;26.70;;;;;;2244522;61;20411;-60
2022/01/10 03:08:45;0.00;0.00;0.62;0.00;0.00;0.62;3.40;2.00;;;19.30;26.70;;;;;;2241370;62;20422;-61
2022/01/10 03:11:31;0.00;0.00;0.62;0.00;0.00;0.62;3.77;2.23;;;19.30;26.70;;;;;;2241126;62;20362;-60
2022/01/10 03:14:17;0.00;0.00;0.62;0.00;0.00;0.62;3.90;2.53;;;19.20;26.60;;;;;;2244344;61;20390;-61
2022/01/10 03:17:02;0.00;0.00;0.62;0.00;0.00;0.62;3.47;2.00;;;19.20;26.60;;;;;;2241475;62;20451;-61
2022/01/10 03:19:46;0.00;0.00;0.62;0.00;0.00;0.62;3.67;1.70;;;19.20;26.60;;;;;;2241915;62;20362;-61
2022/01/10 03:22:31;0.00;0.00;0.62;0.00;0.00;0.62;3.97;2.23;;;19.20;26.60;;;;;;2241514;62;20371;-62
2022/01/10 03:25:17;0.00;0.00;0.62;0.00;0.00;0.62;3.67;2.27;;;19.20;26.60;;;;;;2244096;61;20385;-61
2022/01/10 03:28:06;0.00;0.00;0.62;0.00;0.00;0.62;3.20;1.93;;;19.20;26.60;;;;;;2241723;62;20579;-61
2022/01/10 03:30:51;0.00;0.00;0.62;0.00;0.00;0.62;3.27;2.10;;;19.30;26.70;;;;;;2243730;61;20411;-61
2022/01/10 03:33:38;0.00;0.00;0.62;0.00;0.00;0.62;4.80;2.30;;;19.20;26.70;;;;;;2243650;61;20410;-61
2022/01/10 03:36:23;0.00;0.00;0.62;0.00;0.00;0.62;3.80;1.87;;;19.20;26.60;;;;;;2244421;61;20414;-61
2022/01/10 03:39:07;0.00;0.00;0.62;0.00;0.00;0.62;4.27;2.43;;;19.20;26.70;;;;;;2241390;61;20358;-60
2022/01/10 03:41:52;0.00;0.00;0.62;0.00;0.00;0.62;5.13;2.47;;;19.20;26.70;;;;;;2244239;61;20407;-61
2022/01/10 03:44:38;0.00;0.00;0.62;0.00;0.00;0.62;4.83;2.20;;;19.20;26.70;;;;;;2242194;62;20402;-61
2022/01/10 03:47:22;0.00;0.00;0.62;0.00;0.00;0.62;3.17;2.30;;;19.20;26.70;;;;;;2241619;62;20422;-61
2022/01/10 03:50:09;0.00;0.00;0.62;0.00;0.00;0.62;3.20;2.03;;;19.20;26.70;;;;;;2244199;61;20612;-61
2022/01/10 03:52:55;0.00;0.00;0.62;0.00;0.00;0.62;3.63;2.00;;;19.20;26.70;;;;;;2241254;62;20369;-60
2022/01/10 03:55:40;0.00;0.00;0.62;0.00;0.00;0.62;4.67;2.13;;;19.20;26.70;;;;;;2243690;61;20741;-61
2022/01/10 03:58:26;0.00;0.00;0.62;0.00;0.00;0.62;3.03;2.00;;;19.20;26.70;;;;;;2244368;61;20584;-61
2022/01/10 04:01:13;0.00;0.00;0.62;0.00;0.00;0.62;3.10;2.13;;;19.20;26.70;;;;;;2243701;61;20363;-61
2022/01/10 04:03:58;0.00;0.00;0.62;0.00;0.00;0.62;4.33;2.53;;;19.20;26.70;;;;;;2241049;62;20389;-61
2022/01/10 04:06:43;0.00;0.00;0.62;0.00;0.00;0.62;3.60;2.30;;;19.20;26.70;;;;;;2244550;61;20641;-61
2022/01/10 04:09:28;0.00;0.00;0.62;0.00;0.00;0.62;3.70;2.00;;;19.20;26.70;;;;;;2241203;62;20398;-63
2022/01/10 04:12:12;0.00;0.00;0.62;0.00;0.00;0.62;5.87;2.33;;;19.20;26.70;;;;;;2244013;61;20373;-61
2022/01/10 04:14:57;0.00;0.00;0.62;0.00;0.00;0.62;3.90;2.57;;;19.20;26.70;;;;;;2243525;61;20462;-61
2022/01/10 04:17:44;0.00;0.00;0.62;0.00;0.00;0.62;4.13;2.20;;;19.20;26.80;;;;;;2243558;61;20362;-61
2022/01/10 04:20:29;0.00;0.00;0.62;0.00;0.00;0.62;4.57;1.83;;;19.20;26.70;;;;;;2244416;61;20366;-61
2022/01/10 04:23:16;0.00;0.00;0.62;0.00;0.00;0.62;3.70;2.10;;;19.20;26.80;;;;;;2240781;62;20766;-61
2022/01/10 04:26:01;0.00;0.00;0.62;0.00;0.00;0.62;2.97;1.90;;;19.10;26.70;;;;;;2243706;61;20366;-60
2022/01/10 04:28:50;0.00;0.00;0.62;0.00;0.00;0.62;3.97;2.80;;;19.20;26.80;;;;;;2244307;61;20390;-61
2022/01/10 04:31:35;0.00;0.00;0.62;0.00;0.00;0.62;3.80;2.37;;;19.10;26.70;;;;;;2243536;61;20410;-61
2022/01/10 04:34:21;0.00;0.00;0.62;0.00;0.00;0.62;4.20;2.07;;;19.10;26.70;;;;;;2241668;62;20751;-61
2022/01/10 04:37:07;0.00;0.00;0.62;0.00;0.00;0.62;5.83;3.33;;;19.20;26.80;;;;;;2240795;62;20444;-61
2022/01/10 04:39:52;0.00;0.00;0.62;0.00;0.00;0.62;4.70;2.20;;;19.20;26.80;;;;;;2243497;61;20788;-60
2022/01/10 04:42:37;0.00;0.00;0.62;0.00;0.00;0.62;3.43;2.33;;;19.10;26.70;;;;;;2241543;62;20353;-60
2022/01/10 04:45:22;0.00;0.00;0.62;0.00;0.00;0.62;4.13;2.40;;;19.10;26.70;;;;;;2243618;61;20378;-62
2022/01/10 04:48:07;0.00;0.00;0.62;0.00;0.00;0.62;4.03;2.03;;;19.10;26.70;;;;;;2243487;61;20426;-61
2022/01/10 04:53:44;0.00;0.00;0.62;0.00;0.00;0.62;5.67;2.70;;;19.10;26.70;;;;;;2240305;62;20390;-61
2022/01/10 04:56:30;0.00;0.00;0.62;0.00;0.00;0.62;3.67;2.30;;;19.10;26.70;;;;;;2244042;61;20584;-61
2022/01/10 04:59:17;0.00;0.00;0.62;0.00;0.00;0.62;4.57;2.53;;;19.10;26.70;;;;;;2243430;61;20398;-61
2022/01/10 05:02:02;0.00;0.00;0.62;0.00;0.00;0.62;3.90;2.20;;;19.10;26.70;;;;;;2241189;62;21021;-61
2022/01/10 05:04:46;0.00;0.00;0.62;0.00;0.00;0.62;3.30;1.83;;;19.10;26.80;;;;;;2244182;61;20393;-62
2022/01/10 05:07:32;0.00;0.00;0.62;0.00;0.00;0.62;3.80;2.00;;;19.00;26.70;;;;;;2243395;61;20367;-61
2022/01/10 05:10:17;0.00;0.00;0.62;0.00;0.00;0.62;4.82;2.20;;;19.10;26.80;;;;;;2243328;61;20502;-62
2022/01/10 05:13:03;0.00;0.00;0.62;0.00;0.00;0.62;2.87;2.40;;;19.00;26.80;;;;;;2243982;61;20285;-62
2022/01/10 05:15:49;0.00;0.00;0.62;0.00;0.00;0.62;3.60;2.40;;;19.10;26.80;;;;;;2240798;62;20362;-61
2022/01/10 05:18:34;0.00;0.00;0.62;0.00;0.00;0.62;5.47;2.27;;;19.10;26.80;;;;;;2241233;62;20362;-62
2022/01/10 05:21:20;0.00;0.00;0.62;0.00;0.00;0.62;2.90;2.20;;;19.10;26.80;;;;;;2243447;61;20370;-64
2022/01/10 05:24:07;0.00;0.00;0.62;0.00;0.00;0.62;2.60;1.90;;;19.10;26.80;;;;;;2243511;61;20422;-61
2022/01/10 05:26:52;0.00;0.00;0.62;0.00;0.00;0.62;4.40;2.60;;;19.10;26.80;;;;;;2240659;62;20375;-63
2022/01/10 05:29:40;0.00;0.00;0.62;0.00;0.00;0.62;8.77;2.77;;;19.10;26.80;;;;;;2243895;62;20439;-64
2022/01/10 05:32:25;0.00;0.00;0.62;0.00;0.00;0.62;4.07;2.43;;;19.10;26.80;;;;;;2240932;62;20604;-62
2022/01/10 05:35:22;0.00;0.00;0.62;0.00;0.00;0.62;3.70;2.10;;;19.10;26.80;;;;;;2241352;62;20790;-61
2022/01/10 05:38:07;0.00;0.00;0.62;0.00;0.00;0.62;4.77;2.20;;;19.10;26.80;;;;;;2240843;62;20658;-62
2022/01/10 05:40:53;0.00;0.00;0.62;0.00;0.00;0.62;5.03;2.90;;;19.10;26.90;;;;;;2241606;62;20354;-61
2022/01/10 05:43:38;0.00;0.00;0.62;0.00;0.00;0.62;3.80;2.13;;;19.10;26.90;;;;;;2240888;62;20851;-61
2022/01/10 05:46:23;0.00;0.00;0.62;0.00;0.00;0.62;3.70;2.47;;;19.10;26.90;;;;;;2240717;62;20394;-61
2022/01/10 05:49:12;0.00;0.00;0.62;0.00;0.00;0.62;4.00;2.90;;;19.00;26.80;;;;;;2241283;62;20726;-61
2022/01/10 05:51:58;0.00;0.00;0.62;0.00;0.00;0.62;4.20;2.63;;;19.00;26.80;;;;;;2240679;62;20374;-62
2022/01/10 05:54:50;0.00;0.00;0.62;0.00;0.00;0.62;3.27;2.13;;;19.00;26.80;;;;;;2241073;62;20378;-61
2022/01/10 05:57:36;0.00;0.00;0.62;0.00;0.00;0.62;4.27;2.37;;;19.00;26.80;;;;;;2241360;62;20572;-61
2022/01/10 06:00:22;0.00;0.00;0.62;0.00;0.00;0.62;3.57;2.70;;;19.00;26.70;;;;;;2240649;62;20483;-61
2022/01/10 06:03:07;0.00;0.00;0.62;0.00;0.00;0.62;4.20;2.47;;;19.00;26.70;;;;;;2242053;61;20365;-61
2022/01/10 06:05:57;0.00;0.00;0.62;0.00;0.00;0.62;2.63;2.00;;;19.00;26.80;;;;;;2241356;62;20362;-61
2022/01/10 06:08:43;0.00;0.00;0.62;0.00;0.00;0.62;4.00;2.60;;;19.00;26.80;;;;;;2241364;62;20568;-61
2022/01/10 06:11:28;0.00;0.00;0.62;0.00;0.00;0.62;3.77;2.40;;;19.10;27.00;;;;;;2241844;62;20366;-62
2022/01/10 06:14:14;0.00;0.00;0.62;0.00;0.00;0.62;4.47;2.17;;;19.00;26.90;;;;;;2241207;62;20441;-62
2022/01/10 06:16:58;0.00;0.00;0.62;0.00;0.00;0.62;4.10;2.00;;;19.00;26.90;;;;;;2241149;62;20446;-61
2022/01/10 06:19:43;0.00;0.00;0.62;0.00;0.00;0.62;2.67;1.77;;;19.00;26.90;;;;;;2241904;62;20362;-61
2022/01/10 06:22:29;0.00;0.00;0.62;0.00;0.00;0.62;6.47;2.57;;;19.00;26.90;;;;;;2241050;62;20402;-62
2022/01/10 06:25:19;0.00;0.00;0.62;0.00;0.00;0.62;3.07;1.60;;;19.10;27.00;;;;;;2241984;62;20381;-62
2022/01/10 06:28:04;0.00;0.00;0.62;0.00;0.00;0.62;4.80;2.33;;;19.10;27.00;;;;;;2241710;62;20358;-62
2022/01/10 06:30:50;0.00;0.00;0.62;0.00;0.00;0.62;3.27;1.90;;;19.10;27.00;;;;;;2241286;62;20390;-62
2022/01/10 06:33:35;0.00;0.00;0.62;0.00;0.00;0.62;3.20;1.70;;;19.10;27.00;;;;;;2241728;62;20467;-61
2022/01/10 06:36:21;0.00;0.00;0.62;0.00;0.00;0.62;3.53;1.80;;;19.10;27.00;;;;;;2241327;62;20434;-62
2022/01/10 06:39:10;0.00;0.00;0.62;0.00;0.00;0.62;3.47;1.73;;;19.10;27.00;;;;;;2241158;62;20415;-62
2022/01/10 06:41:58;0.00;0.00;0.62;0.00;0.00;0.62;2.90;1.83;;;19.10;27.00;;;;;;2242032;62;20364;-61
2022/01/10 06:44:44;0.00;0.00;0.62;0.00;0.00;0.62;2.63;1.40;;;19.10;27.00;;;;;;2240978;62;20429;-62
2022/01/10 06:47:33;0.00;0.00;0.62;0.00;0.00;0.62;1.90;1.50;;;19.10;27.00;;;;;;2241668;62;20359;-62
2022/01/10 06:50:18;0.00;0.00;0.62;0.00;0.00;0.62;2.50;1.30;;;19.20;27.00;;;;;;2241179;62;20414;-61
2022/01/10 06:53:06;0.00;0.00;0.62;0.00;0.00;0.62;4.10;2.00;;;19.20;27.00;;;;;;2240929;62;20363;-62
2022/01/10 06:55:52;0.00;0.00;0.62;0.00;0.00;0.62;3.00;1.30;;;19.20;27.00;;;;;;2241932;62;20417;-62
2022/01/10 06:58:37;0.00;0.00;0.62;0.00;0.00;0.62;2.80;1.80;;;19.10;26.90;;;;;;2241607;62;20442;-62
2022/01/10 07:01:25;0.00;0.00;0.62;0.00;0.00;0.62;4.17;2.10;;;19.10;26.90;;;;;;2241251;62;20467;-61
2022/01/10 07:04:12;0.00;0.00;0.62;0.00;0.00;0.62;2.23;1.30;;;19.10;26.90;;;;;;2241865;62;20775;-62
2022/01/10 07:06:57;0.00;0.00;0.62;0.00;0.00;0.62;3.20;1.80;;;19.10;26.90;;;;;;2241005;62;20726;-62
2022/01/10 07:09:45;0.00;0.00;0.62;0.00;0.00;0.62;1.70;1.20;;;19.20;27.00;;;;;;2241498;62;20851;-61
2022/01/10 07:12:31;0.00;0.00;0.62;0.00;0.00;0.62;2.70;1.30;;;19.20;27.00;;;;;;2241437;62;20373;-62
2022/01/10 07:15:24;0.00;0.00;0.62;0.00;0.00;0.62;2.60;1.40;;;19.20;27.00;;;;;;2241001;62;20391;-62
2022/01/10 07:18:10;0.00;0.00;0.62;0.00;0.00;0.62;2.30;1.33;;;19.20;27.00;;;;;;2241785;62;20579;-62
2022/01/10 07:20:58;0.00;0.00;0.62;0.00;0.00;0.62;2.33;1.33;;;19.20;27.00;;;;;;2241085;62;20386;-62
2022/01/10 07:23:43;0.00;0.00;0.62;0.00;0.00;0.62;1.80;1.40;;;19.20;27.00;;;;;;2241090;62;20390;-62
2022/01/10 07:26:28;0.00;0.00;0.62;0.00;0.00;0.62;3.73;1.53;;;19.20;26.90;;;;;;2242252;62;20581;-60
2022/01/10 07:29:13;0.00;0.00;0.62;0.00;0.00;0.62;2.30;1.20;;;19.20;26.90;;;;;;2241384;62;20386;-62
2022/01/10 07:31:58;0.00;0.00;0.62;0.00;0.00;0.62;2.63;1.60;;;19.20;26.90;;;;;;2241967;62;20417;-62
2022/01/10 07:34:42;0.00;0.00;0.62;0.00;0.00;0.62;2.33;1.53;;;19.20;26.90;;;;;;2241373;62;20382;-61
2022/01/10 07:37:28;0.00;0.00;0.62;0.00;0.00;0.62;2.50;1.40;;;19.20;26.90;;;;;;2241380;62;20403;-62
2022/01/10 07:40:13;0.00;0.00;0.62;0.00;0.00;0.62;3.37;1.50;;;19.20;26.90;;;;;;2242226;62;20414;-62
2022/01/10 07:42:58;0.00;0.00;0.62;0.00;0.00;0.62;2.87;1.40;;;19.30;27.00;;;;;;2241207;62;20380;-63
2022/01/10 07:45:58;0.00;0.00;0.62;0.00;0.00;0.62;2.40;1.13;;;19.30;27.00;;;;;;2241315;62;20439;-62
2022/01/10 07:48:44;0.00;0.00;0.62;0.00;0.00;0.62;2.43;1.30;;;19.30;27.00;;;;;;2242167;62;20722;-62
2022/01/10 07:51:29;0.00;0.00;0.62;0.00;0.00;0.62;1.90;1.10;;;19.30;27.00;;;;;;2241407;62;20423;-62
2022/01/10 07:54:15;0.00;0.00;0.62;0.00;0.00;0.62;2.23;1.30;;;19.30;27.00;;;;;;2241751;62;20407;-62
2022/01/10 07:57:00;0.00;0.00;0.62;0.00;0.00;0.62;2.03;1.50;;;19.30;27.00;;;;;;2241294;62;20455;-62
2022/01/10 07:59:46;0.00;0.00;0.62;0.00;0.00;0.62;2.07;1.17;;;19.30;26.90;;;;;;2241451;62;20354;-62
2022/01/10 08:02:30;0.00;0.00;0.62;0.00;0.00;0.62;2.10;1.40;;;19.30;26.90;;;;;;2242051;62;20419;-62
2022/01/10 08:05:15;0.00;0.00;0.62;0.00;0.00;0.62;1.43;0.80;;;19.30;26.90;;;;;;2241299;62;20426;-62
2022/01/10 08:07:59;0.00;0.00;0.62;0.00;0.00;0.62;1.90;1.13;;;19.30;26.90;;;;;;2241472;62;20363;-62
2022/01/10 08:10:45;0.00;0.00;0.62;0.00;0.00;0.62;3.40;1.40;;;19.30;26.90;;;;;;2241963;62;20727;-61
2022/01/10 08:13:30;0.00;0.00;0.62;0.00;0.00;0.62;1.87;1.03;;;19.30;26.90;;;;;;2240904;62;20512;-62
2022/01/10 08:16:14;0.00;0.00;0.62;0.00;0.00;0.62;1.80;1.10;;;19.30;26.90;;;;;;2241833;62;20390;-61
2022/01/10 08:18:59;0.00;0.00;0.62;0.00;0.00;0.62;1.90;1.07;;;19.40;27.00;;;;;;2241119;62;20379;-62
2022/01/10 08:21:43;0.00;0.00;0.62;0.00;0.00;0.62;2.23;1.37;;;19.40;27.00;;;;;;2241588;62;20358;-62
2022/01/10 08:24:28;0.00;0.00;0.62;0.00;0.00;0.62;2.73;1.27;;;19.40;27.00;;;;;;2241840;62;20386;-63
2022/01/10 08:27:14;0.00;0.00;0.62;0.00;0.00;0.62;1.73;1.10;;;19.40;27.00;;;;;;2241229;62;20362;-62
2022/01/10 08:29:59;0.00;0.00;0.62;0.00;0.00;0.62;1.90;1.33;;;19.40;27.00;;;;;;2241391;62;20441;-61
2022/01/10 08:32:46;0.00;0.00;0.62;0.00;0.00;0.62;2.00;1.20;;;19.40;26.90;;;;;;2241961;62;20362;-66
2022/01/10 08:35:32;0.00;0.00;0.62;0.00;0.00;0.62;1.77;1.20;;;19.40;27.00;;;;;;2241095;62;20446;-62
2022/01/10 08:38:16;0.00;0.00;0.62;0.00;0.00;0.62;2.77;1.57;;;19.40;26.90;;;;;;2241642;62;20403;-62
2022/01/10 08:41:01;0.00;0.00;0.62;0.00;0.00;0.62;2.00;1.13;;;19.40;26.90;;;;;;2241453;62;20726;-62
2022/01/10 08:43:47;0.00;0.00;0.62;0.00;0.00;0.62;1.90;1.13;;;19.40;27.00;;;;;;2241350;62;20809;-61
2022/01/10 08:46:31;0.00;0.00;0.62;0.00;0.00;0.62;2.70;1.20;;;19.40;26.90;;;;;;2241900;62;20361;-61
2022/01/10 08:49:16;0.00;0.00;0.62;0.00;0.00;0.62;1.70;1.00;;;19.40;26.90;;;;;;2241218;62;20577;-62
2022/01/10 08:52:00;0.00;0.00;0.62;0.00;0.00;0.62;1.80;1.20;;;19.40;26.90;;;;;;2241206;62;20391;-63
2022/01/10 08:54:47;0.00;0.00;0.62;0.00;0.00;0.62;1.73;1.17;;;19.50;27.00;;;;;;2241906;62;20616;-61
2022/01/10 08:57:31;0.00;0.00;0.62;0.00;0.00;0.62;1.63;0.80;;;19.50;27.00;;;;;;2241206;62;20575;-61
2022/01/10 09:00:17;0.00;0.00;0.62;0.00;0.00;0.62;1.50;1.07;;;19.50;27.00;;;;;;2241369;62;20660;-63
2022/01/10 09:03:03;0.00;0.00;0.62;0.00;0.00;0.62;1.73;1.10;;;19.50;27.00;;;;;;2241551;62;20363;-62
2022/01/10 09:05:47;0.00;0.00;0.62;0.00;0.00;0.62;2.00;1.03;;;19.50;27.00;;;;;;2241612;62;20366;-63
2022/01/10 09:08:36;0.00;0.00;0.62;0.00;0.00;0.62;1.70;1.00;;;19.50;27.00;;;;;;2241733;62;20435;-62
2022/01/10 09:11:20;0.00;0.00;0.62;0.00;0.00;0.62;1.70;1.07;;;19.50;27.00;;;;;;2241302;62;20371;-62
2022/01/10 09:14:06;0.00;0.00;0.62;0.00;0.00;0.62;1.87;1.00;;;19.50;27.00;;;;;;2240942;62;20390;-61
2022/01/10 09:16:52;0.00;0.00;0.62;0.00;0.00;0.62;2.47;1.30;;;19.50;27.00;;;;;;2241846;62;20734;-63
2022/01/10 09:19:36;0.00;0.00;0.62;0.00;0.00;0.62;2.27;1.10;;;19.50;27.00;;;;;;2241104;62;20386;-62
2022/01/10 09:22:20;0.00;0.00;0.62;0.00;0.00;0.62;1.40;0.90;;;19.50;26.90;;;;;;2241341;62;20362;-62
2022/01/10 09:25:07;0.00;0.00;0.62;0.00;0.00;0.62;1.60;1.00;;;19.50;26.90;;;;;;2241929;62;20422;-62
2022/01/10 09:27:52;0.00;0.00;0.62;0.00;0.00;0.62;1.93;1.10;;;19.50;27.00;;;;;;2241378;62;20406;-61
2022/01/10 09:30:36;0.00;0.00;0.62;0.00;0.00;0.62;1.80;0.93;;;19.60;27.00;;;;;;2241791;62;20430;-62
2022/01/10 09:33:22;0.00;0.00;0.62;0.00;0.00;0.62;1.83;1.10;;;19.60;27.00;;;;;;2240953;62;20362;-61
2022/01/10 09:36:07;0.00;0.00;0.62;0.00;0.00;0.62;1.60;1.00;;;19.50;27.00;;;;;;2241008;61;20369;-62
2022/01/10 09:38:52;0.00;0.00;0.62;0.00;0.00;0.62;1.80;1.13;;;19.60;27.00;;;;;;2242803;62;20362;-62
2022/01/10 09:41:37;0.00;0.00;0.62;0.00;0.00;0.62;2.00;1.07;;;19.60;27.00;;;;;;2242330;62;20369;-62
2022/01/10 09:44:22;0.00;0.00;0.62;0.00;0.00;0.62;1.93;0.90;;;19.60;27.00;;;;;;2242539;62;20426;-62
2022/01/10 09:47:06;0.00;0.00;0.62;0.00;0.00;0.62;1.83;0.93;;;19.60;27.00;;;;;;2243195;62;20633;-61
2022/01/10 09:49:52;0.00;0.00;0.62;0.00;0.00;0.62;1.67;1.00;;;19.60;27.00;;;;;;2242304;62;20390;-63
2022/01/10 09:52:39;0.00;0.00;0.62;0.00;0.00;0.62;1.67;0.90;;;19.60;27.00;;;;;;2242951;62;20374;-62
2022/01/10 09:55:25;0.00;0.00;0.62;0.00;0.00;0.62;1.80;1.00;;;19.60;27.00;;;;;;2242256;62;20382;-61
2022/01/10 09:58:10;0.00;0.00;0.62;0.00;0.00;0.62;1.80;0.90;;;19.60;27.00;;;;;;2242409;62;20605;-62
2022/01/10 10:00:56;0.00;0.00;0.62;0.00;0.00;0.62;1.97;1.23;;;19.60;26.90;;;;;;2243565;62;20375;-62
2022/01/10 10:03:44;0.00;0.00;0.62;0.00;0.00;0.62;2.00;1.20;;;19.70;27.00;;;;;;2242486;62;20430;-62
2022/01/10 10:06:31;0.00;0.00;0.62;0.00;0.00;0.62;1.50;1.00;;;19.70;27.00;;;;;;2242555;62;20386;-62
2022/01/10 10:09:16;0.00;0.00;0.62;0.00;0.00;0.62;1.63;0.80;;;19.70;27.00;;;;;;2242856;62;20507;-62
2022/01/10 10:12:02;0.00;0.00;0.62;0.00;0.00;0.62;1.77;0.97;;;19.70;27.00;;;;;;2242392;62;20417;-62
2022/01/10 10:14:47;0.00;0.00;0.62;0.00;0.00;0.62;1.40;0.80;;;19.70;27.00;;;;;;2242792;62;20438;-62
2022/01/10 10:17:32;0.00;0.00;0.62;0.00;0.00;0.62;1.50;0.90;;;19.60;26.90;;;;;;2241826;62;20362;-62
2022/01/10 10:20:21;0.00;0.00;0.62;0.00;0.00;0.62;1.77;1.03;;;19.70;27.00;;;;;;2242386;62;20361;-62
2022/01/10 10:23:13;0.00;0.00;0.62;0.00;0.00;0.62;1.67;0.93;;;19.70;27.00;;;;;;2242871;62;20438;-62
2022/01/10 10:25:57;0.00;0.00;0.62;0.00;0.00;0.62;1.93;1.20;;;19.70;27.00;;;;;;2242468;62;20365;-62
2022/01/10 10:28:44;0.00;0.00;0.62;0.00;0.00;0.62;1.60;1.10;;;19.70;27.00;;;;;;2242623;62;20358;-63
2022/01/10 10:31:32;0.00;0.00;0.62;0.00;0.00;0.62;1.70;1.00;;;19.70;27.00;;;;;;2243142;62;20374;-62
2022/01/10 10:34:20;0.00;0.00;0.62;0.00;0.00;0.62;1.80;0.80;;;19.70;27.50;;;;;;2242397;62;20434;-61
2022/01/10 10:37:07;0.00;0.00;0.62;0.00;0.00;0.62;1.53;0.97;;;19.70;27.00;;;;;;2242678;62;20370;-63
2022/01/10 10:39:56;0.00;0.00;0.62;0.00;0.00;0.62;1.83;1.10;;;19.70;27.00;;;;;;2242310;62;20358;-63
2022/01/10 10:42:43;0.00;0.00;0.62;0.00;0.00;0.62;1.50;0.83;;;19.70;27.00;;;;;;2242375;62;20625;-62
2022/01/10 10:45:28;0.00;0.00;0.62;0.00;0.00;0.62;1.77;1.20;;;19.80;27.10;;;;;;2242917;62;20422;-62
2022/01/10 10:48:12;0.00;0.00;0.62;0.00;0.00;0.62;1.57;0.90;;;19.80;27.00;;;;;;2242003;62;20594;-62
2022/01/10 10:50:59;0.00;0.00;0.62;0.00;0.00;0.62;1.70;1.00;;;19.80;27.10;;;;;;2241777;62;20427;-62
2022/01/10 10:53:44;0.00;0.00;0.62;0.00;0.00;0.62;1.50;1.07;;;19.80;27.10;;;;;;2242161;62;20390;-61
2022/01/10 10:56:34;0.00;0.00;0.62;0.00;0.00;0.62;1.80;0.87;;;19.80;27.10;;;;;;2241823;62;20370;-64
2022/01/10 10:59:20;0.00;0.00;0.62;0.00;0.00;0.62;1.50;0.90;;;19.80;27.10;;;;;;2242093;62;20569;-61
2022/01/10 11:02:05;0.00;0.00;0.62;0.00;0.00;0.62;1.40;0.90;;;19.80;27.20;;;;;;2241613;62;20407;-61
2022/01/10 11:04:49;0.00;0.00;0.62;0.00;0.00;0.62;1.60;0.90;;;19.80;27.10;;;;;;2241697;62;20500;-62
2022/01/10 11:07:35;0.00;0.00;0.62;0.00;0.00;0.62;1.50;1.00;;;19.80;27.10;;;;;;2242271;62;20362;-61